Glen Burnie, Maryland
Current Conditions -  °F | °C
As of 2:54 AM on Friday 31 Oct 2014 (Local Time) from KBWI Reporting Station
Light Rain Light Rain  
Wind Chill:   Ceiling: 5500
Heat Index:   Visibility: 10mi
Dew Point:   Wind: 0mph
Humidity: 79%   Direction: NA
Pressure: 30.02"   Gusts: NA
Location:  39.16°N, 76.62°W
Report Text: KBWI 310654Z 00000KT 10SM -RA OVC055 08/04 A3002 RMK AO2 RAB54 SLP165 P0000 T00780044
Loading
Personal Weather Stations






























Interactive Weather Map
Tropical Storm Tracking
New forecast layout! Learn more

10-Day Weather Forecast

Advertisements
Track Severe Weather on mobile